sensor_id;sensor_type;location;lat;lon;timestamp;P1;durP1;ratioP1;P2;durP2;ratioP2
22248;SDS011;67538;52.180;5.646;2023-07-24T00:00:18;8.18;;;6.43;;
22248;SDS011;67538;52.180;5.646;2023-07-24T00:02:45;9.07;;;7.15;;
22248;SDS011;67538;52.180;5.646;2023-07-24T00:05:12;10.20;;;7.47;;
22248;SDS011;67538;52.180;5.646;2023-07-24T00:07:39;8.88;;;7.18;;
22248;SDS011;67538;52.180;5.646;2023-07-24T00:10:06;9.05;;;7.25;;
22248;SDS011;67538;52.180;5.646;2023-07-24T00:12:35;8.93;;;7.07;;
22248;SDS011;67538;52.180;5.646;2023-07-24T00:15:02;9.27;;;7.38;;
22248;SDS011;67538;52.180;5.646;2023-07-24T00:17:30;8.07;;;6.80;;
22248;SDS011;67538;52.180;5.646;2023-07-24T00:19:57;9.40;;;7.15;;
22248;SDS011;67538;52.180;5.646;2023-07-24T00:22:24;8.18;;;6.82;;
22248;SDS011;67538;52.180;5.646;2023-07-24T00:24:51;8.52;;;7.13;;
22248;SDS011;67538;52.180;5.646;2023-07-24T00:27:18;7.90;;;7.00;;
22248;SDS011;67538;52.180;5.646;2023-07-24T00:29:46;8.77;;;7.37;;
22248;SDS011;67538;52.180;5.646;2023-07-24T00:32:13;8.50;;;7.22;;
22248;SDS011;67538;52.180;5.646;2023-07-24T00:34:40;9.05;;;7.63;;
22248;SDS011;67538;52.180;5.646;2023-07-24T00:37:07;8.95;;;7.47;;
22248;SDS011;67538;52.180;5.646;2023-07-24T00:39:34;9.05;;;7.35;;
22248;SDS011;67538;52.180;5.646;2023-07-24T00:42:01;10.32;;;7.85;;
22248;SDS011;67538;52.180;5.646;2023-07-24T00:44:29;9.32;;;7.80;;
22248;SDS011;67538;52.180;5.646;2023-07-24T00:46:57;10.65;;;8.48;;
22248;SDS011;67538;52.180;5.646;2023-07-24T00:49:24;11.40;;;8.38;;
22248;SDS011;67538;52.180;5.646;2023-07-24T00:51:51;9.80;;;8.30;;
22248;SDS011;67538;52.180;5.646;2023-07-24T00:54:19;9.95;;;8.48;;
22248;SDS011;67538;52.180;5.646;2023-07-24T00:56:48;11.30;;;9.15;;
22248;SDS011;67538;52.180;5.646;2023-07-24T00:59:15;10.13;;;9.00;;
22248;SDS011;67538;52.180;5.646;2023-07-24T01:01:42;11.33;;;9.03;;
22248;SDS011;67538;52.180;5.646;2023-07-24T01:04:12;12.20;;;9.25;;
22248;SDS011;67538;52.180;5.646;2023-07-24T01:06:40;11.52;;;8.32;;
22248;SDS011;67538;52.180;5.646;2023-07-24T01:09:07;9.45;;;8.18;;
22248;SDS011;67538;52.180;5.646;2023-07-24T01:11:36;10.07;;;8.15;;
22248;SDS011;67538;52.180;5.646;2023-07-24T01:14:08;9.43;;;7.90;;
22248;SDS011;67538;52.180;5.646;2023-07-24T01:16:40;10.73;;;8.50;;
22248;SDS011;67538;52.180;5.646;2023-07-24T01:19:11;10.18;;;8.50;;
22248;SDS011;67538;52.180;5.646;2023-07-24T01:21:51;10.70;;;9.18;;
22248;SDS011;67538;52.180;5.646;2023-07-24T01:24:29;10.80;;;9.00;;
22248;SDS011;67538;52.180;5.646;2023-07-24T01:27:04;11.97;;;8.87;;
22248;SDS011;67538;52.180;5.646;2023-07-24T01:29:33;9.60;;;8.60;;
22248;SDS011;67538;52.180;5.646;2023-07-24T01:32:00;9.95;;;8.48;;
22248;SDS011;67538;52.180;5.646;2023-07-24T01:34:27;9.60;;;8.60;;
22248;SDS011;67538;52.180;5.646;2023-07-24T01:36:54;9.88;;;8.77;;
22248;SDS011;67538;52.180;5.646;2023-07-24T01:39:21;10.75;;;8.80;;
22248;SDS011;67538;52.180;5.646;2023-07-24T01:41:48;11.00;;;9.73;;
22248;SDS011;67538;52.180;5.646;2023-07-24T01:44:18;10.68;;;9.30;;
22248;SDS011;67538;52.180;5.646;2023-07-24T01:46:45;11.00;;;9.82;;
22248;SDS011;67538;52.180;5.646;2023-07-24T01:49:12;12.70;;;10.35;;
22248;SDS011;67538;52.180;5.646;2023-07-24T01:51:39;13.15;;;10.63;;
22248;SDS011;67538;52.180;5.646;2023-07-24T01:54:06;11.55;;;10.18;;
22248;SDS011;67538;52.180;5.646;2023-07-24T01:56:35;11.45;;;10.25;;
22248;SDS011;67538;52.180;5.646;2023-07-24T01:59:02;11.80;;;10.15;;
22248;SDS011;67538;52.180;5.646;2023-07-24T02:01:31;11.80;;;10.43;;
22248;SDS011;67538;52.180;5.646;2023-07-24T02:03:58;12.10;;;10.40;;
22248;SDS011;67538;52.180;5.646;2023-07-24T02:06:25;14.90;;;10.43;;
22248;SDS011;67538;52.180;5.646;2023-07-24T02:08:52;13.18;;;11.27;;
22248;SDS011;67538;52.180;5.646;2023-07-24T02:11:19;13.93;;;10.82;;
22248;SDS011;67538;52.180;5.646;2023-07-24T02:13:46;13.43;;;11.13;;
22248;SDS011;67538;52.180;5.646;2023-07-24T02:16:13;13.18;;;11.30;;
22248;SDS011;67538;52.180;5.646;2023-07-24T02:18:42;12.82;;;11.38;;
22248;SDS011;67538;52.180;5.646;2023-07-24T02:21:09;12.38;;;11.05;;
22248;SDS011;67538;52.180;5.646;2023-07-24T02:23:36;14.95;;;11.20;;
22248;SDS011;67538;52.180;5.646;2023-07-24T02:26:04;13.70;;;11.38;;
22248;SDS011;67538;52.180;5.646;2023-07-24T02:28:31;13.10;;;11.13;;
22248;SDS011;67538;52.180;5.646;2023-07-24T02:30:58;15.02;;;11.52;;
22248;SDS011;67538;52.180;5.646;2023-07-24T02:33:25;15.10;;;11.53;;
22248;SDS011;67538;52.180;5.646;2023-07-24T02:35:53;14.52;;;11.55;;
22248;SDS011;67538;52.180;5.646;2023-07-24T02:38:20;14.38;;;11.90;;
22248;SDS011;67538;52.180;5.646;2023-07-24T02:40:48;13.13;;;11.57;;
22248;SDS011;67538;52.180;5.646;2023-07-24T02:43:15;13.32;;;11.85;;
22248;SDS011;67538;52.180;5.646;2023-07-24T02:45:42;13.68;;;11.88;;
22248;SDS011;67538;52.180;5.646;2023-07-24T02:48:09;13.27;;;11.88;;
22248;SDS011;67538;52.180;5.646;2023-07-24T02:50:36;13.82;;;12.05;;
22248;SDS011;67538;52.180;5.646;2023-07-24T02:53:05;13.52;;;11.65;;
22248;SDS011;67538;52.180;5.646;2023-07-24T02:55:32;14.35;;;11.75;;
22248;SDS011;67538;52.180;5.646;2023-07-24T02:57:59;14.15;;;10.80;;
22248;SDS011;67538;52.180;5.646;2023-07-24T03:00:26;12.05;;;9.80;;
22248;SDS011;67538;52.180;5.646;2023-07-24T03:02:53;10.80;;;9.40;;
22248;SDS011;67538;52.180;5.646;2023-07-24T03:05:20;10.88;;;9.38;;
22248;SDS011;67538;52.180;5.646;2023-07-24T03:07:47;10.70;;;8.85;;
22248;SDS011;67538;52.180;5.646;2023-07-24T03:10:15;10.00;;;8.85;;
22248;SDS011;67538;52.180;5.646;2023-07-24T03:12:43;13.30;;;9.43;;
22248;SDS011;67538;52.180;5.646;2023-07-24T03:15:10;11.90;;;9.23;;
22248;SDS011;67538;52.180;5.646;2023-07-24T03:17:37;11.05;;;9.43;;
22248;SDS011;67538;52.180;5.646;2023-07-24T03:20:15;12.60;;;9.55;;
22248;SDS011;67538;52.180;5.646;2023-07-24T03:22:43;11.13;;;9.45;;
22248;SDS011;67538;52.180;5.646;2023-07-24T03:25:11;12.70;;;9.75;;
22248;SDS011;67538;52.180;5.646;2023-07-24T03:27:39;12.13;;;10.07;;
22248;SDS011;67538;52.180;5.646;2023-07-24T03:30:07;13.60;;;10.68;;
22248;SDS011;67538;52.180;5.646;2023-07-24T03:32:35;12.05;;;9.93;;
22248;SDS011;67538;52.180;5.646;2023-07-24T03:35:03;12.13;;;10.30;;
22248;SDS011;67538;52.180;5.646;2023-07-24T03:37:30;14.27;;;10.40;;
22248;SDS011;67538;52.180;5.646;2023-07-24T03:39:57;14.75;;;10.13;;
22248;SDS011;67538;52.180;5.646;2023-07-24T03:42:25;13.45;;;10.18;;
22248;SDS011;67538;52.180;5.646;2023-07-24T03:44:54;14.70;;;10.10;;
22248;SDS011;67538;52.180;5.646;2023-07-24T03:47:22;15.68;;;10.20;;
22248;SDS011;67538;52.180;5.646;2023-07-24T03:49:49;13.85;;;10.10;;
22248;SDS011;67538;52.180;5.646;2023-07-24T03:52:17;14.57;;;9.98;;
22248;SDS011;67538;52.180;5.646;2023-07-24T03:54:44;15.45;;;9.82;;
22248;SDS011;67538;52.180;5.646;2023-07-24T03:57:11;12.90;;;9.87;;
22248;SDS011;67538;52.180;5.646;2023-07-24T03:59:40;14.57;;;10.00;;
22248;SDS011;67538;52.180;5.646;2023-07-24T04:02:09;15.57;;;10.82;;
22248;SDS011;67538;52.180;5.646;2023-07-24T04:04:36;17.20;;;10.73;;
22248;SDS011;67538;52.180;5.646;2023-07-24T04:07:03;16.08;;;10.32;;
22248;SDS011;67538;52.180;5.646;2023-07-24T04:09:31;16.60;;;10.93;;
22248;SDS011;67538;52.180;5.646;2023-07-24T04:11:58;17.15;;;11.45;;
22248;SDS011;67538;52.180;5.646;2023-07-24T04:14:25;19.10;;;11.77;;
22248;SDS011;67538;52.180;5.646;2023-07-24T04:16:52;17.73;;;11.10;;
22248;SDS011;67538;52.180;5.646;2023-07-24T04:19:22;17.88;;;11.45;;
22248;SDS011;67538;52.180;5.646;2023-07-24T04:21:49;17.73;;;11.68;;
22248;SDS011;67538;52.180;5.646;2023-07-24T04:24:16;17.75;;;11.88;;
22248;SDS011;67538;52.180;5.646;2023-07-24T04:26:43;18.47;;;11.67;;
22248;SDS011;67538;52.180;5.646;2023-07-24T04:29:10;18.80;;;12.03;;
22248;SDS011;67538;52.180;5.646;2023-07-24T04:31:37;18.83;;;11.60;;
22248;SDS011;67538;52.180;5.646;2023-07-24T04:34:04;19.05;;;11.63;;
22248;SDS011;67538;52.180;5.646;2023-07-24T04:36:32;19.38;;;12.55;;
22248;SDS011;67538;52.180;5.646;2023-07-24T04:38:59;19.50;;;12.82;;
22248;SDS011;67538;52.180;5.646;2023-07-24T04:41:26;19.67;;;12.90;;
22248;SDS011;67538;52.180;5.646;2023-07-24T04:43:54;18.92;;;12.70;;
22248;SDS011;67538;52.180;5.646;2023-07-24T04:46:21;20.80;;;12.70;;
22248;SDS011;67538;52.180;5.646;2023-07-24T04:48:48;19.97;;;12.90;;
22248;SDS011;67538;52.180;5.646;2023-07-24T04:51:15;20.95;;;13.07;;
22248;SDS011;67538;52.180;5.646;2023-07-24T04:53:45;20.25;;;13.00;;
22248;SDS011;67538;52.180;5.646;2023-07-24T04:56:12;21.38;;;13.40;;
22248;SDS011;67538;52.180;5.646;2023-07-24T04:58:39;19.40;;;13.10;;
22248;SDS011;67538;52.180;5.646;2023-07-24T05:01:06;21.25;;;14.05;;
22248;SDS011;67538;52.180;5.646;2023-07-24T05:03:34;22.48;;;13.45;;
22248;SDS011;67538;52.180;5.646;2023-07-24T05:06:01;19.20;;;13.32;;
22248;SDS011;67538;52.180;5.646;2023-07-24T05:08:28;17.73;;;13.00;;
22248;SDS011;67538;52.180;5.646;2023-07-24T05:10:57;20.33;;;13.68;;
22248;SDS011;67538;52.180;5.646;2023-07-24T05:13:24;21.42;;;13.75;;
22248;SDS011;67538;52.180;5.646;2023-07-24T05:15:51;22.48;;;13.77;;
22248;SDS011;67538;52.180;5.646;2023-07-24T05:18:19;19.13;;;13.00;;
22248;SDS011;67538;52.180;5.646;2023-07-24T05:20:46;19.55;;;12.88;;
22248;SDS011;67538;52.180;5.646;2023-07-24T05:23:16;23.63;;;13.73;;
22248;SDS011;67538;52.180;5.646;2023-07-24T05:25:43;20.23;;;13.30;;
22248;SDS011;67538;52.180;5.646;2023-07-24T05:28:11;21.57;;;13.57;;
22248;SDS011;67538;52.180;5.646;2023-07-24T05:30:38;20.48;;;13.30;;
22248;SDS011;67538;52.180;5.646;2023-07-24T05:33:05;20.88;;;13.20;;
22248;SDS011;67538;52.180;5.646;2023-07-24T05:35:32;21.20;;;13.40;;
22248;SDS011;67538;52.180;5.646;2023-07-24T05:37:59;20.90;;;13.30;;
22248;SDS011;67538;52.180;5.646;2023-07-24T05:40:27;19.98;;;12.85;;
22248;SDS011;67538;52.180;5.646;2023-07-24T05:42:55;20.58;;;13.25;;
22248;SDS011;67538;52.180;5.646;2023-07-24T05:45:23;20.35;;;13.00;;
22248;SDS011;67538;52.180;5.646;2023-07-24T05:47:50;20.65;;;12.65;;
22248;SDS011;67538;52.180;5.646;2023-07-24T05:50:17;18.75;;;13.00;;
22248;SDS011;67538;52.180;5.646;2023-07-24T05:52:44;20.98;;;13.05;;
22248;SDS011;67538;52.180;5.646;2023-07-24T05:55:11;21.55;;;13.13;;
22248;SDS011;67538;52.180;5.646;2023-07-24T05:57:38;21.17;;;12.68;;
22248;SDS011;67538;52.180;5.646;2023-07-24T06:00:06;20.90;;;13.18;;
22248;SDS011;67538;52.180;5.646;2023-07-24T06:02:35;20.55;;;12.45;;
22248;SDS011;67538;52.180;5.646;2023-07-24T06:05:02;18.30;;;12.43;;
22248;SDS011;67538;52.180;5.646;2023-07-24T06:07:29;19.55;;;12.48;;
22248;SDS011;67538;52.180;5.646;2023-07-24T06:09:56;20.77;;;12.25;;
22248;SDS011;67538;52.180;5.646;2023-07-24T06:12:23;18.35;;;12.57;;
22248;SDS011;67538;52.180;5.646;2023-07-24T06:14:50;22.30;;;13.07;;
22248;SDS011;67538;52.180;5.646;2023-07-24T06:17:17;21.73;;;13.07;;
22248;SDS011;67538;52.180;5.646;2023-07-24T06:19:46;20.73;;;12.07;;
22248;SDS011;67538;52.180;5.646;2023-07-24T06:22:13;22.10;;;12.57;;
22248;SDS011;67538;52.180;5.646;2023-07-24T06:24:40;18.55;;;11.63;;
22248;SDS011;67538;52.180;5.646;2023-07-24T06:27:07;21.08;;;11.52;;
22248;SDS011;67538;52.180;5.646;2023-07-24T06:29:34;27.00;;;11.90;;
22248;SDS011;67538;52.180;5.646;2023-07-24T06:32:01;18.67;;;11.38;;
22248;SDS011;67538;52.180;5.646;2023-07-24T06:34:29;20.25;;;11.73;;
22248;SDS011;67538;52.180;5.646;2023-07-24T06:36:57;16.48;;;11.60;;
22248;SDS011;67538;52.180;5.646;2023-07-24T06:39:24;22.37;;;11.67;;
22248;SDS011;67538;52.180;5.646;2023-07-24T06:41:53;20.20;;;11.60;;
22248;SDS011;67538;52.180;5.646;2023-07-24T06:44:21;18.70;;;11.63;;
22248;SDS011;67538;52.180;5.646;2023-07-24T06:46:48;20.35;;;11.52;;
22248;SDS011;67538;52.180;5.646;2023-07-24T06:49:15;21.05;;;11.68;;
22248;SDS011;67538;52.180;5.646;2023-07-24T06:51:42;18.67;;;11.20;;
22248;SDS011;67538;52.180;5.646;2023-07-24T06:54:10;18.67;;;11.50;;
22248;SDS011;67538;52.180;5.646;2023-07-24T06:56:37;19.20;;;11.40;;
22248;SDS011;67538;52.180;5.646;2023-07-24T06:59:04;17.10;;;11.30;;
22248;SDS011;67538;52.180;5.646;2023-07-24T07:01:31;20.73;;;11.10;;
22248;SDS011;67538;52.180;5.646;2023-07-24T07:03:58;15.43;;;9.75;;
22248;SDS011;67538;52.180;5.646;2023-07-24T07:06:25;15.98;;;9.73;;
22248;SDS011;67538;52.180;5.646;2023-07-24T07:08:52;15.85;;;9.55;;
22248;SDS011;67538;52.180;5.646;2023-07-24T07:11:21;18.03;;;9.70;;
22248;SDS011;67538;52.180;5.646;2023-07-24T07:13:48;16.58;;;9.63;;
22248;SDS011;67538;52.180;5.646;2023-07-24T07:16:15;17.80;;;9.93;;
22248;SDS011;67538;52.180;5.646;2023-07-24T07:18:44;18.30;;;10.10;;
22248;SDS011;67538;52.180;5.646;2023-07-24T07:21:11;19.73;;;9.63;;
22248;SDS011;67538;52.180;5.646;2023-07-24T07:23:38;19.63;;;10.55;;
22248;SDS011;67538;52.180;5.646;2023-07-24T07:26:05;15.95;;;9.88;;
22248;SDS011;67538;52.180;5.646;2023-07-24T07:28:33;16.75;;;9.95;;
22248;SDS011;67538;52.180;5.646;2023-07-24T07:31:00;18.07;;;10.07;;
22248;SDS011;67538;52.180;5.646;2023-07-24T07:33:27;16.97;;;10.17;;
22248;SDS011;67538;52.180;5.646;2023-07-24T07:35:55;18.85;;;9.95;;
22248;SDS011;67538;52.180;5.646;2023-07-24T07:38:22;19.33;;;9.98;;
22248;SDS011;67538;52.180;5.646;2023-07-24T07:40:49;16.60;;;9.32;;
22248;SDS011;67538;52.180;5.646;2023-07-24T07:43:16;15.27;;;9.77;;
22248;SDS011;67538;52.180;5.646;2023-07-24T07:45:44;15.50;;;9.60;;
22248;SDS011;67538;52.180;5.646;2023-07-24T07:48:13;16.10;;;9.15;;
22248;SDS011;67538;52.180;5.646;2023-07-24T07:50:40;15.05;;;9.07;;
22248;SDS011;67538;52.180;5.646;2023-07-24T07:53:07;15.40;;;8.88;;
22248;SDS011;67538;52.180;5.646;2023-07-24T07:55:34;14.85;;;9.25;;
22248;SDS011;67538;52.180;5.646;2023-07-24T07:58:01;14.93;;;8.68;;
22248;SDS011;67538;52.180;5.646;2023-07-24T08:00:28;16.08;;;8.80;;
22248;SDS011;67538;52.180;5.646;2023-07-24T08:02:56;14.77;;;8.82;;
22248;SDS011;67538;52.180;5.646;2023-07-24T08:05:23;16.03;;;8.77;;
22248;SDS011;67538;52.180;5.646;2023-07-24T08:07:50;14.27;;;9.27;;
22248;SDS011;67538;52.180;5.646;2023-07-24T08:10:17;13.27;;;8.32;;
22248;SDS011;67538;52.180;5.646;2023-07-24T08:12:45;16.13;;;8.52;;
22248;SDS011;67538;52.180;5.646;2023-07-24T08:15:12;13.55;;;8.93;;
22248;SDS011;67538;52.180;5.646;2023-07-24T08:17:39;16.20;;;8.70;;
22248;SDS011;67538;52.180;5.646;2023-07-24T08:20:07;13.90;;;9.10;;
22248;SDS011;67538;52.180;5.646;2023-07-24T08:22:35;13.18;;;8.35;;
22248;SDS011;67538;52.180;5.646;2023-07-24T08:25:02;14.98;;;8.80;;
22248;SDS011;67538;52.180;5.646;2023-07-24T08:27:30;14.55;;;8.88;;
22248;SDS011;67538;52.180;5.646;2023-07-24T08:29:57;15.05;;;8.30;;
22248;SDS011;67538;52.180;5.646;2023-07-24T08:32:24;12.98;;;8.70;;
22248;SDS011;67538;52.180;5.646;2023-07-24T08:34:51;16.83;;;9.02;;
22248;SDS011;67538;52.180;5.646;2023-07-24T08:37:19;13.30;;;8.32;;
22248;SDS011;67538;52.180;5.646;2023-07-24T08:39:46;13.00;;;8.27;;
22248;SDS011;67538;52.180;5.646;2023-07-24T08:42:13;15.05;;;8.52;;
22248;SDS011;67538;52.180;5.646;2023-07-24T08:44:41;14.57;;;8.20;;
22248;SDS011;67538;52.180;5.646;2023-07-24T08:47:10;15.55;;;8.23;;
22248;SDS011;67538;52.180;5.646;2023-07-24T08:49:38;12.98;;;9.00;;
22248;SDS011;67538;52.180;5.646;2023-07-24T08:52:06;12.73;;;9.00;;
22248;SDS011;67538;52.180;5.646;2023-07-24T08:54:36;15.57;;;9.38;;
22248;SDS011;67538;52.180;5.646;2023-07-24T08:57:04;14.18;;;7.93;;
22248;SDS011;67538;52.180;5.646;2023-07-24T08:59:33;12.73;;;7.80;;
22248;SDS011;67538;52.180;5.646;2023-07-24T09:02:00;13.80;;;7.93;;
22248;SDS011;67538;52.180;5.646;2023-07-24T09:04:28;15.18;;;7.25;;
22248;SDS011;67538;52.180;5.646;2023-07-24T09:06:56;14.20;;;7.05;;
22248;SDS011;67538;52.180;5.646;2023-07-24T09:09:28;14.10;;;7.30;;
22248;SDS011;67538;52.180;5.646;2023-07-24T09:11:57;13.73;;;7.10;;
22248;SDS011;67538;52.180;5.646;2023-07-24T09:14:25;12.73;;;6.50;;
22248;SDS011;67538;52.180;5.646;2023-07-24T09:19:38;13.93;;;7.68;;
22248;SDS011;67538;52.180;5.646;2023-07-24T09:22:09;14.40;;;7.50;;
22248;SDS011;67538;52.180;5.646;2023-07-24T09:24:37;14.55;;;8.80;;
22248;SDS011;67538;52.180;5.646;2023-07-24T09:27:06;15.18;;;8.60;;
22248;SDS011;67538;52.180;5.646;2023-07-24T09:29:35;14.20;;;9.20;;
22248;SDS011;67538;52.180;5.646;2023-07-24T09:32:02;14.85;;;8.98;;
22248;SDS011;67538;52.180;5.646;2023-07-24T09:34:29;14.43;;;9.70;;
22248;SDS011;67538;52.180;5.646;2023-07-24T09:36:58;13.23;;;9.73;;
22248;SDS011;67538;52.180;5.646;2023-07-24T09:39:25;14.50;;;8.80;;
22248;SDS011;67538;52.180;5.646;2023-07-24T09:41:53;12.75;;;8.40;;
22248;SDS011;67538;52.180;5.646;2023-07-24T09:44:30;13.30;;;8.68;;
22248;SDS011;67538;52.180;5.646;2023-07-24T09:46:57;15.40;;;9.20;;
22248;SDS011;67538;52.180;5.646;2023-07-24T09:49:24;15.50;;;9.13;;
22248;SDS011;67538;52.180;5.646;2023-07-24T09:51:51;15.18;;;9.05;;
22248;SDS011;67538;52.180;5.646;2023-07-24T09:54:24;16.70;;;8.98;;
22248;SDS011;67538;52.180;5.646;2023-07-24T09:56:56;17.05;;;8.68;;
22248;SDS011;67538;52.180;5.646;2023-07-24T09:59:25;13.82;;;8.63;;
22248;SDS011;67538;52.180;5.646;2023-07-24T10:01:56;14.38;;;8.30;;
22248;SDS011;67538;52.180;5.646;2023-07-24T10:04:24;17.42;;;8.07;;
22248;SDS011;67538;52.180;5.646;2023-07-24T10:06:51;16.38;;;8.57;;
22248;SDS011;67538;52.180;5.646;2023-07-24T10:09:18;14.63;;;8.30;;
22248;SDS011;67538;52.180;5.646;2023-07-24T10:11:48;14.13;;;8.05;;
22248;SDS011;67538;52.180;5.646;2023-07-24T10:14:15;13.88;;;7.85;;
22248;SDS011;67538;52.180;5.646;2023-07-24T10:16:44;14.75;;;8.15;;
22248;SDS011;67538;52.180;5.646;2023-07-24T10:19:15;12.35;;;7.90;;
22248;SDS011;67538;52.180;5.646;2023-07-24T10:21:46;14.50;;;7.50;;
22248;SDS011;67538;52.180;5.646;2023-07-24T10:24:14;10.07;;;6.22;;
22248;SDS011;67538;52.180;5.646;2023-07-24T10:26:41;12.27;;;6.30;;
22248;SDS011;67538;52.180;5.646;2023-07-24T10:29:08;10.63;;;5.65;;
22248;SDS011;67538;52.180;5.646;2023-07-24T10:31:36;13.93;;;6.65;;
22248;SDS011;67538;52.180;5.646;2023-07-24T10:34:03;13.00;;;7.13;;
22248;SDS011;67538;52.180;5.646;2023-07-24T10:36:34;12.43;;;6.93;;
22248;SDS011;67538;52.180;5.646;2023-07-24T10:39:12;13.65;;;7.43;;
22248;SDS011;67538;52.180;5.646;2023-07-24T10:41:40;15.52;;;6.88;;
22248;SDS011;67538;52.180;5.646;2023-07-24T10:44:09;13.23;;;6.80;;
22248;SDS011;67538;52.180;5.646;2023-07-24T10:46:36;11.90;;;6.32;;
22248;SDS011;67538;52.180;5.646;2023-07-24T10:49:04;12.00;;;6.57;;
22248;SDS011;67538;52.180;5.646;2023-07-24T10:51:34;14.45;;;6.95;;
22248;SDS011;67538;52.180;5.646;2023-07-24T10:54:03;15.65;;;7.18;;
22248;SDS011;67538;52.180;5.646;2023-07-24T10:56:30;13.30;;;6.50;;
22248;SDS011;67538;52.180;5.646;2023-07-24T10:59:02;11.82;;;7.00;;
22248;SDS011;67538;52.180;5.646;2023-07-24T11:01:30;12.90;;;7.10;;
22248;SDS011;67538;52.180;5.646;2023-07-24T11:03:58;14.52;;;6.43;;
22248;SDS011;67538;52.180;5.646;2023-07-24T11:06:25;11.95;;;6.90;;
22248;SDS011;67538;52.180;5.646;2023-07-24T11:08:55;18.17;;;7.23;;
22248;SDS011;67538;52.180;5.646;2023-07-24T11:11:27;11.70;;;7.07;;
22248;SDS011;67538;52.180;5.646;2023-07-24T11:13:55;13.68;;;6.70;;
22248;SDS011;67538;52.180;5.646;2023-07-24T11:16:22;12.80;;;6.57;;
22248;SDS011;67538;52.180;5.646;2023-07-24T11:18:50;13.80;;;6.68;;
22248;SDS011;67538;52.180;5.646;2023-07-24T11:21:18;13.45;;;6.28;;
22248;SDS011;67538;52.180;5.646;2023-07-24T11:23:46;13.43;;;7.75;;
22248;SDS011;67538;52.180;5.646;2023-07-24T11:26:16;10.23;;;6.30;;
22248;SDS011;67538;52.180;5.646;2023-07-24T11:28:45;12.93;;;6.60;;
22248;SDS011;67538;52.180;5.646;2023-07-24T11:31:12;29.67;;;6.93;;
22248;SDS011;67538;52.180;5.646;2023-07-24T11:33:40;17.13;;;7.55;;
22248;SDS011;67538;52.180;5.646;2023-07-24T11:36:08;17.23;;;7.40;;
22248;SDS011;67538;52.180;5.646;2023-07-24T11:38:36;17.75;;;7.50;;
22248;SDS011;67538;52.180;5.646;2023-07-24T11:41:04;16.42;;;7.45;;
22248;SDS011;67538;52.180;5.646;2023-07-24T11:43:32;18.98;;;6.60;;
22248;SDS011;67538;52.180;5.646;2023-07-24T11:45:59;12.32;;;6.97;;
22248;SDS011;67538;52.180;5.646;2023-07-24T11:48:26;13.07;;;7.65;;
22248;SDS011;67538;52.180;5.646;2023-07-24T11:50:54;13.57;;;7.65;;
22248;SDS011;67538;52.180;5.646;2023-07-24T11:53:22;13.10;;;7.20;;
22248;SDS011;67538;52.180;5.646;2023-07-24T11:55:50;18.45;;;7.50;;
22248;SDS011;67538;52.180;5.646;2023-07-24T11:58:18;14.43;;;8.00;;
22248;SDS011;67538;52.180;5.646;2023-07-24T12:00:48;13.07;;;7.68;;
22248;SDS011;67538;52.180;5.646;2023-07-24T12:03:19;14.30;;;8.43;;
22248;SDS011;67538;52.180;5.646;2023-07-24T12:05:46;16.80;;;8.03;;
22248;SDS011;67538;52.180;5.646;2023-07-24T12:08:14;17.13;;;8.38;;
22248;SDS011;67538;52.180;5.646;2023-07-24T12:10:42;13.75;;;7.68;;
22248;SDS011;67538;52.180;5.646;2023-07-24T12:13:09;12.20;;;7.85;;
22248;SDS011;67538;52.180;5.646;2023-07-24T12:15:36;15.93;;;7.78;;
22248;SDS011;67538;52.180;5.646;2023-07-24T12:18:05;16.42;;;8.75;;
22248;SDS011;67538;52.180;5.646;2023-07-24T12:20:33;14.77;;;8.38;;
22248;SDS011;67538;52.180;5.646;2023-07-24T12:23:01;15.73;;;9.38;;
22248;SDS011;67538;52.180;5.646;2023-07-24T12:25:28;17.30;;;11.00;;
22248;SDS011;67538;52.180;5.646;2023-07-24T12:27:55;18.13;;;11.30;;
22248;SDS011;67538;52.180;5.646;2023-07-24T12:30:22;19.73;;;11.45;;
22248;SDS011;67538;52.180;5.646;2023-07-24T12:32:49;17.92;;;10.77;;
22248;SDS011;67538;52.180;5.646;2023-07-24T12:35:18;17.33;;;10.10;;
22248;SDS011;67538;52.180;5.646;2023-07-24T12:37:45;17.85;;;10.05;;
22248;SDS011;67538;52.180;5.646;2023-07-24T12:40:12;16.15;;;10.50;;
22248;SDS011;67538;52.180;5.646;2023-07-24T12:42:39;14.02;;;9.20;;
22248;SDS011;67538;52.180;5.646;2023-07-24T12:45:07;16.13;;;8.77;;
22248;SDS011;67538;52.180;5.646;2023-07-24T12:47:34;17.33;;;9.35;;
22248;SDS011;67538;52.180;5.646;2023-07-24T12:50:01;17.00;;;9.23;;
22248;SDS011;67538;52.180;5.646;2023-07-24T12:52:30;15.43;;;8.90;;
22248;SDS011;67538;52.180;5.646;2023-07-24T12:54:57;13.63;;;8.20;;
22248;SDS011;67538;52.180;5.646;2023-07-24T12:57:24;21.65;;;9.50;;
22248;SDS011;67538;52.180;5.646;2023-07-24T12:59:51;17.70;;;9.60;;
22248;SDS011;67538;52.180;5.646;2023-07-24T13:02:19;13.10;;;8.40;;
22248;SDS011;67538;52.180;5.646;2023-07-24T13:04:46;14.48;;;9.15;;
22248;SDS011;67538;52.180;5.646;2023-07-24T13:07:13;15.25;;;8.70;;
22248;SDS011;67538;52.180;5.646;2023-07-24T13:09:41;19.00;;;8.82;;
22248;SDS011;67538;52.180;5.646;2023-07-24T13:12:08;13.97;;;9.07;;
22248;SDS011;67538;52.180;5.646;2023-07-24T13:14:36;14.02;;;9.18;;
22248;SDS011;67538;52.180;5.646;2023-07-24T13:17:03;16.65;;;9.18;;
22248;SDS011;67538;52.180;5.646;2023-07-24T13:19:31;15.82;;;9.88;;
22248;SDS011;67538;52.180;5.646;2023-07-24T13:21:58;12.40;;;7.88;;
22248;SDS011;67538;52.180;5.646;2023-07-24T13:24:25;13.07;;;7.50;;
22248;SDS011;67538;52.180;5.646;2023-07-24T13:26:53;8.77;;;4.75;;
22248;SDS011;67538;52.180;5.646;2023-07-24T13:29:20;6.10;;;3.13;;
22248;SDS011;67538;52.180;5.646;2023-07-24T13:31:48;6.82;;;3.30;;
22248;SDS011;67538;52.180;5.646;2023-07-24T13:34:16;8.25;;;3.85;;
22248;SDS011;67538;52.180;5.646;2023-07-24T13:36:44;8.15;;;4.72;;
22248;SDS011;67538;52.180;5.646;2023-07-24T13:39:12;9.85;;;5.28;;
22248;SDS011;67538;52.180;5.646;2023-07-24T13:41:39;8.63;;;5.40;;
22248;SDS011;67538;52.180;5.646;2023-07-24T13:44:07;7.22;;;4.85;;
22248;SDS011;67538;52.180;5.646;2023-07-24T13:46:34;9.52;;;5.80;;
22248;SDS011;67538;52.180;5.646;2023-07-24T13:49:01;9.40;;;6.82;;
22248;SDS011;67538;52.180;5.646;2023-07-24T13:51:29;12.23;;;8.00;;
22248;SDS011;67538;52.180;5.646;2023-07-24T13:53:56;12.60;;;8.53;;
22248;SDS011;67538;52.180;5.646;2023-07-24T13:56:24;11.95;;;8.60;;
22248;SDS011;67538;52.180;5.646;2023-07-24T13:58:52;13.25;;;8.60;;
22248;SDS011;67538;52.180;5.646;2023-07-24T14:01:22;15.85;;;11.38;;
22248;SDS011;67538;52.180;5.646;2023-07-24T14:03:49;20.58;;;11.63;;
22248;SDS011;67538;52.180;5.646;2023-07-24T14:06:16;15.32;;;11.35;;
22248;SDS011;67538;52.180;5.646;2023-07-24T14:08:43;19.92;;;12.05;;
22248;SDS011;67538;52.180;5.646;2023-07-24T14:11:10;18.20;;;12.00;;
22248;SDS011;67538;52.180;5.646;2023-07-24T14:13:37;17.27;;;12.50;;
22248;SDS011;67538;52.180;5.646;2023-07-24T14:16:04;17.33;;;11.88;;
22248;SDS011;67538;52.180;5.646;2023-07-24T14:18:32;17.85;;;13.15;;
22248;SDS011;67538;52.180;5.646;2023-07-24T14:20:59;17.48;;;12.40;;
22248;SDS011;67538;52.180;5.646;2023-07-24T14:23:27;18.38;;;12.15;;
22248;SDS011;67538;52.180;5.646;2023-07-24T14:25:54;17.10;;;11.77;;
22248;SDS011;67538;52.180;5.646;2023-07-24T14:28:21;17.27;;;11.73;;
22248;SDS011;67538;52.180;5.646;2023-07-24T14:30:48;20.77;;;11.85;;
22248;SDS011;67538;52.180;5.646;2023-07-24T14:33:15;16.55;;;10.85;;
22248;SDS011;67538;52.180;5.646;2023-07-24T14:35:43;15.32;;;10.85;;